Time;durP1;ratioP1;P1;durP2;ratioP2;P2;SDS_P1;SDS_P2;PMS_P1;PMS_P2;Temp;Humidity;BMP_temperature;BMP_pressure;BME280_temperature;BME280_humidity;BME280_pressure;Samples;Min_cycle;Max_cycle;Signal;HPM_P1;HPM_P2
2021/01/06 00:00:53;;;;;;;14.65;10.25;;;;;;;9.04;74.23;100400.93;1737751;80;21635;-71
2021/01/06 00:03:23;;;;;;;16.17;11.25;;;;;;;9.05;74.20;100398.73;1757271;81;21622;-71
2021/01/06 00:05:55;;;;;;;13.80;10.38;;;;;;;9.03;74.25;100410.54;1761906;81;21615;-69
2021/01/06 00:08:24;;;;;;;12.85;9.90;;;;;;;8.99;74.18;100414.52;1741050;81;21170;-69
2021/01/06 00:10:56;;;;;;;13.60;9.58;;;;;;;8.83;74.59;100417.20;1735040;81;21582;-69
2021/01/06 00:13:24;;;;;;;11.25;8.80;;;;;;;8.90;74.26;100415.41;1753075;81;21606;-71
2021/01/06 00:15:52;;;;;;;11.05;9.30;;;;;;;8.80;74.25;100418.98;1758676;80;21606;-71
2021/01/06 00:18:20;;;;;;;10.15;8.78;;;;;;;8.75;74.27;100418.98;1737864;81;21605;-69
2021/01/06 00:20:48;;;;;;;10.53;8.60;;;;;;;8.72;74.15;100423.82;1740078;81;21574;-69
2021/01/06 00:23:16;;;;;;;11.85;8.98;;;;;;;8.66;74.08;100427.77;1761504;81;21155;-69
2021/01/06 00:25:45;;;;;;;12.65;9.55;;;;;;;8.59;73.96;100432.18;1748399;80;21569;-71
2021/01/06 00:28:17;;;;;;;11.83;9.33;;;;;;;8.51;74.00;100435.69;1737668;81;21589;-71
2021/01/06 00:30:52;;;;;;;19.07;10.70;;;;;;;8.43;73.94;100436.54;1734538;81;21182;-70
2021/01/06 00:33:26;;;;;;;12.60;10.20;;;;;;;8.39;73.93;100440.50;1761135;81;21609;-69
2021/01/06 00:36:02;;;;;;;13.10;10.13;;;;;;;8.33;73.88;100433.53;1758668;80;21580;-70
2021/01/06 00:38:30;;;;;;;13.22;9.83;;;;;;;8.26;73.90;100437.03;1731218;82;21582;-69
2021/01/06 00:40:58;;;;;;;14.85;10.25;;;;;;;8.22;73.90;100441.39;1756707;81;21642;-69
2021/01/06 00:43:26;;;;;;;13.20;9.83;;;;;;;8.22;73.76;100443.16;1755053;81;21166;-71
2021/01/06 00:45:55;;;;;;;13.57;9.60;;;;;;;8.13;73.79;100443.59;1737942;81;21151;-69
2021/01/06 00:48:23;;;;;;;11.88;9.40;;;;;;;8.07;73.76;100451.47;1718408;83;22447;-71
2021/01/06 00:50:52;;;;;;;15.28;8.88;;;;;;;8.00;73.77;100454.96;1737727;82;21180;-69
2021/01/06 00:53:25;;;;;;;96.82;68.60;;;;;;;7.95;73.85;100467.22;1729412;81;21175;-69
2021/01/06 00:55:54;;;;;;;53.48;37.25;;;;;;;7.79;74.23;100470.25;1724645;82;21171;-69
2021/01/06 00:58:23;;;;;;;46.80;32.40;;;;;;;7.81;74.08;100471.13;1726137;82;21598;-68
2021/01/06 01:00:52;;;;;;;32.90;23.80;;;;;;;7.85;73.83;100481.63;1747929;82;21204;-72
2021/01/06 01:03:22;;;;;;;28.05;20.82;;;;;;;7.85;73.95;100485.98;1712806;82;21107;-72
2021/01/06 01:05:51;;;;;;;19.70;14.87;;;;;;;7.87;73.96;100488.16;1718699;82;21154;-72
2021/01/06 01:08:19;;;;;;;15.08;11.22;;;;;;;7.87;73.86;100487.74;1720407;82;21135;-72
2021/01/06 01:10:49;;;;;;;12.75;10.08;;;;;;;7.86;73.90;100484.69;1737920;81;21155;-69
2021/01/06 01:13:24;;;;;;;11.97;9.33;;;;;;;7.88;74.04;100479.43;1726719;82;21602;-72
2021/01/06 01:15:55;;;;;;;11.65;9.75;;;;;;;7.85;73.98;100470.25;1719344;82;21607;-72
2021/01/06 01:18:25;;;;;;;13.03;10.68;;;;;;;7.80;74.10;100471.58;1740401;82;21152;-72
2021/01/06 01:20:58;;;;;;;13.83;11.78;;;;;;;7.74;74.29;100463.25;1747560;82;21150;-72
2021/01/06 01:23:27;;;;;;;12.95;10.43;;;;;;;7.77;74.26;100464.13;1725068;81;21606;-69
2021/01/06 01:28:31;;;;;;;14.00;10.98;;;;;;;7.77;74.07;100460.20;1832069;77;22588;-67
2021/01/06 01:30:59;;;;;;;13.08;10.60;;;;;;;7.71;73.92;100464.59;1776917;78;21127;-70
2021/01/06 01:33:27;;;;;;;14.93;11.40;;;;;;;7.72;73.78;100463.72;1793110;80;21150;-67
2021/01/06 01:35:58;;;;;;;12.15;10.05;;;;;;;7.67;73.79;100464.15;1762820;80;21118;-71
2021/01/06 01:38:29;;;;;;;14.00;11.28;;;;;;;7.66;73.86;100469.37;1788409;80;21676;-69
2021/01/06 01:41:08;;;;;;;15.75;12.82;;;;;;;7.62;73.94;100476.36;1784034;80;21158;-69
2021/01/06 01:43:36;;;;;;;12.45;10.53;;;;;;;7.59;73.94;100479.83;1793074;80;21582;-69
2021/01/06 01:46:09;;;;;;;14.15;11.70;;;;;;;7.58;73.98;100485.09;1790200;80;21188;-71
2021/01/06 01:48:46;;;;;;;14.10;10.30;;;;;;;7.54;74.00;100491.19;1764555;80;21147;-69
2021/01/06 01:51:43;;;;;;;15.72;11.65;;;;;;;7.50;74.01;100489.01;1793072;80;21138;-71
2021/01/06 01:54:14;;;;;;;14.33;11.10;;;;;;;7.46;74.00;100492.48;1793271;80;21151;-67
2021/01/06 01:56:52;;;;;;;12.45;10.50;;;;;;;7.42;74.00;100493.35;1788324;80;21153;-69
2021/01/06 01:59:52;;;;;;;11.75;9.93;;;;;;;7.41;73.85;100493.77;1778559;80;21146;-69
2021/01/06 02:03:07;;;;;;;13.22;10.63;;;;;;;7.38;73.85;100499.00;1793443;80;21189;-68
2021/01/06 02:05:54;;;;;;;13.80;11.20;;;;;;;7.33;73.74;100503.34;1786287;80;21292;-70
2021/01/06 02:08:30;;;;;;;14.05;11.18;;;;;;;7.24;73.95;100500.27;1774518;80;21578;-72
2021/01/06 02:11:04;;;;;;;13.08;10.20;;;;;;;7.22;74.06;100499.39;1792718;80;21146;-68
2021/01/06 02:13:45;;;;;;;14.68;10.70;;;;;;;7.22;74.20;100507.23;1793439;80;21162;-72
2021/01/06 02:16:34;;;;;;;15.43;11.55;;;;;;;7.22;74.26;100511.62;1769089;80;21545;-67
2021/01/06 02:19:03;;;;;;;14.55;11.22;;;;;;;7.25;74.30;100506.40;1743847;81;21431;-71
2021/01/06 02:21:31;;;;;;;14.78;10.60;;;;;;;7.28;74.38;100507.27;1762053;81;21170;-68
2021/01/06 02:23:58;;;;;;;18.65;13.68;;;;;;;7.32;74.47;100519.92;1769997;80;21134;-71
2021/01/06 02:26:27;;;;;;;15.93;13.25;;;;;;;7.37;74.47;100528.67;1772930;80;21189;-68
2021/01/06 02:28:56;;;;;;;15.75;12.03;;;;;;;7.42;74.44;100532.63;1787903;80;21155;-72
2021/01/06 02:31:24;;;;;;;20.95;14.10;;;;;;;7.44;74.47;100526.52;1787979;80;21582;-68
2021/01/06 02:33:51;;;;;;;15.68;11.30;;;;;;;7.49;74.49;100533.09;1787696;80;21577;-72
2021/01/06 02:36:20;;;;;;;13.72;10.95;;;;;;;7.51;74.54;100531.78;1728050;82;21162;-72
2021/01/06 02:38:48;;;;;;;14.80;11.60;;;;;;;7.52;74.61;100533.08;1748318;82;21611;-69
2021/01/06 02:41:16;;;;;;;17.62;12.78;;;;;;;7.54;74.58;100532.64;1747961;82;21293;-70
2021/01/06 02:43:44;;;;;;;16.30;12.40;;;;;;;7.59;74.46;100532.67;1772389;80;21609;-71
2021/01/06 02:46:12;;;;;;;18.90;13.78;;;;;;;7.61;74.45;100543.14;1756945;80;21572;-68
2021/01/06 02:48:39;;;;;;;25.02;18.57;;;;;;;7.61;74.43;100549.27;1757024;80;21138;-72
2021/01/06 02:51:15;;;;;;;27.55;17.95;;;;;;;7.63;74.44;100555.39;1781804;80;21177;-68
2021/01/06 02:53:54;;;;;;;16.82;12.55;;;;;;;7.64;74.45;100556.25;1760543;80;21128;-71
2021/01/06 02:56:22;;;;;;;15.03;11.73;;;;;;;7.64;74.41;100556.25;1756392;82;21548;-72
2021/01/06 02:58:51;;;;;;;13.45;10.50;;;;;;;7.65;74.37;100559.31;1756210;82;21307;-72
2021/01/06 03:01:23;;;;;;;16.37;10.48;;;;;;;7.69;74.18;100556.72;1727748;82;21191;-72
2021/01/06 03:03:54;;;;;;;14.95;11.00;;;;;;;7.66;74.16;100559.33;1782580;80;21435;-72
2021/01/06 03:06:44;;;;;;;13.95;10.48;;;;;;;7.68;74.03;100555.39;1762262;80;21183;-69
2021/01/06 03:09:33;;;;;;;14.58;11.12;;;;;;;7.70;73.97;100567.64;1789448;80;21538;-72
2021/01/06 03:12:05;;;;;;;13.70;10.80;;;;;;;7.71;73.98;100569.39;1779759;80;21655;-68
2021/01/06 03:14:34;;;;;;;16.60;11.93;;;;;;;7.68;74.00;100584.21;1727319;82;21103;-68
2021/01/06 03:17:03;;;;;;;15.05;11.30;;;;;;;7.67;73.98;100584.66;1756374;82;21204;-69
2021/01/06 03:19:32;;;;;;;14.58;10.32;;;;;;;7.68;74.02;100585.10;1774990;80;21585;-72
2021/01/06 03:22:01;;;;;;;15.95;11.97;;;;;;;7.69;73.93;100586.85;1760262;80;21571;-68
2021/01/06 03:24:34;;;;;;;14.83;11.03;;;;;;;7.71;73.96;100592.08;1756314;82;21186;-72
2021/01/06 03:27:02;;;;;;;14.15;10.85;;;;;;;7.68;73.99;100588.14;1756683;81;21233;-68
2021/01/06 03:29:31;;;;;;;15.55;11.45;;;;;;;7.72;73.91;100588.17;1702177;81;21540;-68
2021/01/06 03:32:05;;;;;;;14.33;10.53;;;;;;;7.71;73.87;100590.77;1734226;82;21122;-71
2021/01/06 03:34:56;;;;;;;14.70;11.05;;;;;;;7.68;73.94;100585.52;1751497;82;21135;-71
2021/01/06 03:37:29;;;;;;;14.38;11.97;;;;;;;7.66;73.96;100599.05;1756263;81;21752;-68
2021/01/06 03:40:02;;;;;;;16.67;11.35;;;;;;;7.64;73.97;100598.17;1725892;82;21622;-70
2021/01/06 03:42:30;;;;;;;15.88;11.90;;;;;;;7.63;73.99;100602.97;1741655;82;21615;-68
2021/01/06 03:44:58;;;;;;;19.27;13.60;;;;;;;7.64;73.96;100608.64;1691719;82;21161;-68
2021/01/06 03:47:27;;;;;;;16.42;12.98;;;;;;;7.62;73.94;100606.45;1738505;81;21194;-68
2021/01/06 03:50:05;;;;;;;15.08;12.33;;;;;;;7.57;73.97;100603.37;1759821;81;22026;-70
2021/01/06 03:52:46;;;;;;;15.50;11.75;;;;;;;7.58;73.94;100606.44;1741534;82;21207;-70
2021/01/06 03:55:48;;;;;;;16.32;12.23;;;;;;;7.52;74.03;100605.55;1750925;81;21601;-68
2021/01/06 03:58:46;;;;;;;16.00;12.05;;;;;;;7.43;74.16;100600.72;1768017;81;21135;-70
2021/01/06 04:01:28;;;;;;;13.28;10.38;;;;;;;7.47;73.85;100604.66;1761409;81;21885;-71
2021/01/06 04:04:20;;;;;;;14.85;11.80;;;;;;;7.41;73.82;100605.07;1762776;81;21111;-71
2021/01/06 04:06:51;;;;;;;17.82;12.65;;;;;;;7.29;74.13;100612.44;1762413;80;21515;-70
2021/01/06 04:09:37;;;;;;;;;;;;;;;7.22;74.35;100625.50;1770523;81;21143;-68
2021/01/06 04:12:14;;;;;;;14.35;10.10;;;;;;;7.24;74.37;100632.94;1761760;81;20227;-70
2021/01/06 04:14:42;;;;;;;16.57;11.75;;;;;;;7.22;74.44;100634.66;1764825;81;21173;-70
2021/01/06 04:17:21;;;;;;;12.93;10.45;;;;;;;7.18;74.73;100636.38;1766192;81;21309;-70
2021/01/06 04:19:58;;;;;;;14.13;9.83;;;;;;;7.12;75.10;100643.77;1741860;82;21123;-71
2021/01/06 04:22:46;;;;;;;15.65;10.88;;;;;;;7.13;75.17;100643.31;1694112;82;21128;-70
2021/01/06 04:25:30;;;;;;;13.65;10.68;;;;;;;7.14;75.17;100643.34;1758554;81;21192;-67
2021/01/06 04:28:19;;;;;;;171.57;64.58;;;;;;;7.15;75.20;100646.83;1762143;80;21138;-71
2021/01/06 04:30:57;;;;;;;245.02;127.53;;;;;;;7.17;75.20;100652.09;1761361;81;21168;-70
2021/01/06 04:33:28;;;;;;;69.97;37.33;;;;;;;7.19;75.22;100663.44;1785870;80;21158;-71
2021/01/06 04:36:00;;;;;;;128.97;48.63;;;;;;;7.21;75.18;100666.50;1790301;80;21157;-68
2021/01/06 04:38:31;;;;;;;100.62;38.83;;;;;;;7.34;74.78;100666.58;1761528;81;21111;-68
2021/01/06 04:41:01;;;;;;;121.17;42.48;;;;;;;7.26;75.15;100673.09;1773653;80;21623;-71
2021/01/06 04:43:42;;;;;;;116.35;40.25;;;;;;;7.24;75.25;100676.13;1777008;80;21146;-71
2021/01/06 04:46:27;;;;;;;83.25;31.20;;;;;;;7.31;75.10;100673.11;1761730;81;21163;-70
2021/01/06 04:49:23;;;;;;;83.40;33.00;;;;;;;7.43;74.74;100677.97;1762075;80;21550;-70
2021/01/06 04:52:30;;;;;;;81.75;31.75;;;;;;;7.49;74.57;100685.01;1783771;80;21151;-70
2021/01/06 04:55:24;;;;;;;61.08;24.72;;;;;;;7.51;74.49;100692.41;1792731;80;21294;-69
2021/01/06 04:58:06;;;;;;;68.78;28.12;;;;;;;7.44;74.74;100701.98;1792578;80;21118;-68
2021/01/06 05:01:08;;;;;;;55.98;22.60;;;;;;;7.41;74.80;100694.56;1761888;80;21546;-68
2021/01/06 05:03:49;;;;;;;57.15;26.30;;;;;;;7.38;74.90;100698.02;1710003;80;21209;-70
2021/01/06 05:06:59;;;;;;;57.98;25.88;;;;;;;7.37;74.89;100704.13;1792889;80;21574;-71
2021/01/06 05:09:49;;;;;;;56.83;24.98;;;;;;;7.37;74.85;100705.43;1668421;84;21810;-68
2021/01/06 05:12:31;;;;;;;91.90;36.55;;;;;;;7.42;74.58;100702.41;1792828;80;21593;-68
2021/01/06 05:15:19;;;;;;;70.35;28.65;;;;;;;7.38;74.68;100704.56;1763397;80;21597;-68
2021/01/06 05:17:47;;;;;;;62.65;25.70;;;;;;;7.41;74.48;100704.59;1766686;80;21170;-68
2021/01/06 05:20:15;;;;;;;58.02;25.70;;;;;;;7.42;74.41;100708.09;1761311;80;21284;-67
2021/01/06 05:22:42;;;;;;;48.25;22.27;;;;;;;7.38;74.37;100708.50;1768998;80;21159;-71
2021/01/06 05:25:13;;;;;;;69.47;29.52;;;;;;;7.35;74.28;100699.76;1744792;81;21587;-71
2021/01/06 05:27:41;;;;;;;;;;;;;;;7.33;74.20;100704.97;1766802;80;21138;-71
2021/01/06 05:30:31;;;;;;;80.35;28.52;;;;;;;7.33;74.01;100711.96;1783026;80;20123;-71
2021/01/06 05:33:08;;;;;;;136.92;40.88;;;;;;;7.21;74.13;100708.84;1756299;82;21147;-70
2021/01/06 05:35:43;;;;;;;102.27;31.80;;;;;;;7.19;74.06;100712.73;1765709;80;21334;-70
2021/01/06 05:38:11;;;;;;;110.90;35.63;;;;;;;7.26;73.40;100708.44;1765430;80;21712;-70
2021/01/06 05:40:41;;;;;;;111.05;39.10;;;;;;;7.08;73.61;100713.98;1756331;81;21586;-69
2021/01/06 05:43:31;;;;;;;71.25;27.42;;;;;;;6.98;73.70;100709.11;1762703;80;21156;-69
2021/01/06 05:46:02;;;;;;;94.95;32.03;;;;;;;6.93;73.52;100715.16;1763967;80;21575;-68
2021/01/06 05:48:42;;;;;;;;;;;;;;;6.81;73.51;100715.52;1759219;80;21155;-69
2021/01/06 05:51:27;;;;;;;166.97;48.83;;;;;;;6.74;73.55;100720.25;1780438;80;20136;-69
2021/01/06 05:54:22;;;;;;;101.70;31.87;;;;;;;6.66;73.61;100720.16;1772208;80;21142;-69
2021/01/06 05:57:10;;;;;;;57.35;23.05;;;;;;;6.53;73.77;100732.25;1746025;80;21150;-68
2021/01/06 05:59:51;;;;;;;69.70;26.52;;;;;;;6.45;73.91;100740.44;1756378;80;21597;-69
2021/01/06 06:02:47;;;;;;;44.35;21.07;;;;;;;6.38;73.96;100753.89;1762678;80;21123;-71
2021/01/06 06:05:43;;;;;;;92.25;35.35;;;;;;;6.32;74.03;100764.27;1719840;80;21099;-67
2021/01/06 06:08:28;;;;;;;68.52;28.70;;;;;;;6.35;73.91;100766.06;1753719;81;21565;-69
2021/01/06 06:11:38;;;;;;;108.72;39.90;;;;;;;6.29;73.94;100772.53;1763644;80;21654;-69
2021/01/06 06:14:28;;;;;;;100.60;37.47;;;;;;;6.28;73.91;100776.00;1766530;80;21166;-71
2021/01/06 06:17:43;;;;;;;79.60;30.90;;;;;;;6.19;74.04;100771.11;1762545;80;21688;-69
2021/01/06 06:20:31;;;;;;;77.15;30.55;;;;;;;6.19;73.97;100781.97;1761423;80;21205;-71
2021/01/06 06:23:28;;;;;;;53.75;24.87;;;;;;;6.12;74.06;100798.02;1768221;80;21288;-71
2021/01/06 06:26:20;;;;;;;63.52;29.45;;;;;;;6.06;74.08;100799.23;1764855;80;21676;-69
2021/01/06 06:29:12;;;;;;;37.25;19.82;;;;;;;6.01;74.28;100807.45;1756589;80;21131;-71
2021/01/06 06:31:42;;;;;;;45.38;25.12;;;;;;;5.99;74.34;100806.10;1757303;80;21158;-70
2021/01/06 06:34:10;;;;;;;48.58;22.00;;;;;;;6.04;74.26;100808.80;1704182;82;21162;-69
2021/01/06 06:36:41;;;;;;;42.33;20.80;;;;;;;6.02;74.28;100807.48;1728629;82;21626;-70
2021/01/06 06:39:35;;;;;;;45.58;20.12;;;;;;;5.98;74.44;100818.72;1760303;80;21579;-69
2021/01/06 06:42:29;;;;;;;57.03;21.10;;;;;;;5.98;74.46;100818.72;1760559;80;21585;-69
2021/01/06 06:45:01;;;;;;;35.13;18.02;;;;;;;5.97;74.43;100814.34;1758292;80;21576;-69
2021/01/06 06:48:01;;;;;;;40.03;19.27;;;;;;;5.99;74.57;100817.86;1760392;80;21585;-70
2021/01/06 06:51:14;;;;;;;35.83;18.82;;;;;;;5.99;74.72;100820.47;1769811;80;21150;-69
2021/01/06 06:54:14;;;;;;;27.67;17.05;;;;;;;6.04;74.73;100820.55;1761232;80;21178;-69
2021/01/06 06:57:10;;;;;;;23.47;15.10;;;;;;;6.09;74.79;100832.84;1760634;80;21337;-70
2021/01/06 06:59:50;;;;;;;22.07;15.30;;;;;;;6.20;74.72;100839.52;1760343;80;21625;-68
2021/01/06 07:02:19;;;;;;;25.32;17.30;;;;;;;6.32;74.57;100837.92;1756376;82;21557;-69
2021/01/06 07:04:50;;;;;;;20.68;15.72;;;;;;;6.35;74.52;100847.11;1755978;82;21147;-70
2021/01/06 07:07:41;;;;;;;19.40;14.03;;;;;;;6.35;74.77;100849.28;1760460;80;21118;-68
2021/01/06 07:10:23;;;;;;;19.62;13.83;;;;;;;6.39;75.04;100849.77;1756937;80;21179;-70
2021/01/06 07:12:53;;;;;;;17.05;12.47;;;;;;;6.55;74.88;100857.81;1756043;82;21132;-69
2021/01/06 07:15:44;;;;;;;19.75;14.20;;;;;;;6.59;74.85;100863.54;1763071;80;21123;-69
2021/01/06 07:18:40;;;;;;;17.67;12.30;;;;;;;6.63;74.99;100861.82;1761730;80;21565;-69
2021/01/06 07:21:29;;;;;;;18.45;13.65;;;;;;;6.69;74.92;100865.82;1760842;80;21662;-69
2021/01/06 07:24:08;;;;;;;19.70;13.78;;;;;;;6.73;75.00;100862.80;1761022;80;21155;-69
2021/01/06 07:26:46;;;;;;;21.07;15.32;;;;;;;6.81;74.97;100865.08;1762659;80;21188;-69
2021/01/06 07:29:15;;;;;;;19.00;13.98;;;;;;;6.91;75.12;100869.55;1777345;80;21122;-69
2021/01/06 07:31:58;;;;;;;18.55;13.53;;;;;;;7.12;74.70;100867.59;1759262;80;21700;-69
2021/01/06 07:34:54;;;;;;;20.15;13.25;;;;;;;7.25;74.74;100868.58;1768074;80;21133;-68
2021/01/06 07:37:47;;;;;;;20.10;13.85;;;;;;;7.26;74.87;100872.95;1760957;80;21578;-69
2021/01/06 07:40:28;;;;;;;20.30;15.00;;;;;;;7.41;74.76;100872.65;1756615;80;21539;-67
2021/01/06 07:43:13;;;;;;;19.12;14.40;;;;;;;7.56;74.75;100868.83;1756354;80;21159;-68
2021/01/06 07:46:03;;;;;;;18.75;13.48;;;;;;;7.75;74.49;100868.98;1767595;80;21599;-69
2021/01/06 07:49:06;;;;;;;21.95;16.67;;;;;;;7.83;74.08;100873.84;1756294;80;21586;-69
2021/01/06 07:51:56;;;;;;;20.52;14.50;;;;;;;7.81;74.20;100879.52;1717672;83;21328;-69
2021/01/06 07:54:41;;;;;;;20.35;15.03;;;;;;;7.92;73.91;100880.02;1723632;82;21721;-68
2021/01/06 07:57:42;;;;;;;23.15;15.70;;;;;;;8.01;74.04;100880.95;1853008;77;22590;-66
2021/01/06 08:00:12;;;;;;;18.52;13.83;;;;;;;8.10;74.09;100891.92;1814443;78;21150;-68
2021/01/06 08:02:51;;;;;;;20.00;14.83;;;;;;;8.12;74.23;100895.88;1788160;80;21099;-69
2021/01/06 08:05:30;;;;;;;19.87;15.05;;;;;;;8.27;73.97;100892.47;1782110;80;21569;-68
2021/01/06 08:08:13;;;;;;;19.95;15.35;;;;;;;8.25;74.17;100884.57;1761903;81;21573;-71
2021/01/06 08:10:43;;;;;;;21.40;15.68;;;;;;;8.30;74.23;100889.86;1762605;80;21712;-69
2021/01/06 08:13:16;;;;;;;20.90;16.20;;;;;;;8.37;74.16;100884.20;1778793;80;21268;-70
2021/01/06 08:15:46;;;;;;;24.37;16.85;;;;;;;8.47;74.03;100888.63;1793192;79;21650;-67
2021/01/06 08:18:47;;;;;;;24.37;17.80;;;;;;;8.65;73.91;100887.86;1783931;80;21134;-68
2021/01/06 08:21:27;;;;;;;20.77;16.57;;;;;;;8.79;73.79;100893.15;1789726;79;21574;-70
2021/01/06 08:24:35;;;;;;;19.45;14.87;;;;;;;8.92;73.43;100887.08;1761500;81;21142;-69
2021/01/06 08:27:03;;;;;;;18.87;14.45;;;;;;;9.02;73.22;100891.05;1789776;80;21170;-68
2021/01/06 08:29:33;;;;;;;18.27;13.30;;;;;;;9.13;73.10;100886.66;1752086;81;21182;-67
2021/01/06 08:32:18;;;;;;;17.82;14.15;;;;;;;9.15;72.98;100886.23;1730859;82;21163;-67
2021/01/06 08:35:03;;;;;;;16.60;12.93;;;;;;;9.21;72.77;100889.33;1714931;82;21169;-69
2021/01/06 08:37:34;;;;;;;16.12;12.85;;;;;;;9.28;72.32;100892.83;1717076;82;21138;-69
2021/01/06 08:40:06;;;;;;;16.27;13.28;;;;;;;9.43;72.35;100892.85;1729258;81;21550;-69
2021/01/06 08:42:41;;;;;;;14.63;11.83;;;;;;;9.59;71.90;100895.47;1724921;82;21593;-68
2021/01/06 08:45:29;;;;;;;14.28;11.33;;;;;;;9.63;71.59;100898.11;1736350;82;21593;-66
2021/01/06 08:47:57;;;;;;;14.85;12.30;;;;;;;9.71;71.42;100892.84;1742636;81;21586;-70
2021/01/06 08:50:33;;;;;;;15.78;12.63;;;;;;;9.77;71.44;100896.78;1712419;82;21596;-70
2021/01/06 08:53:04;;;;;;;15.43;12.23;;;;;;;9.83;71.55;100901.16;1725967;82;21278;-70
2021/01/06 08:55:45;;;;;;;13.75;11.43;;;;;;;9.91;71.05;100895.45;1717163;82;21186;-70
2021/01/06 08:58:13;;;;;;;14.25;11.20;;;;;;;9.93;70.27;100891.53;1701017;82;21597;-68
2021/01/06 09:00:51;;;;;;;13.15;11.15;;;;;;;9.94;70.09;100886.67;1718574;83;21522;-68
2021/01/06 09:03:27;;;;;;;13.22;10.93;;;;;;;10.01;69.93;100887.10;1757814;81;21123;-68
2021/01/06 09:06:15;;;;;;;14.35;11.60;;;;;;;10.11;69.40;100880.09;1771002;81;21130;-68
2021/01/06 09:09:11;;;;;;;15.10;12.43;;;;;;;10.16;70.10;100882.24;1743345;81;21122;-70
2021/01/06 09:11:53;;;;;;;15.32;12.05;;;;;;;10.38;69.92;100881.73;1751402;81;21575;-69
2021/01/06 09:14:34;;;;;;;15.60;12.98;;;;;;;10.43;69.61;100876.52;1756643;81;21135;-67
2021/01/06 09:17:21;;;;;;;15.75;12.23;;;;;;;10.54;69.77;100878.67;1769581;81;21273;-71
2021/01/06 09:20:00;;;;;;;14.40;11.55;;;;;;;10.73;69.24;100877.70;1758672;81;21346;-71
2021/01/06 09:22:34;;;;;;;14.35;12.20;;;;;;;10.78;68.61;100883.38;1748021;81;21135;-69
2021/01/06 09:25:05;;;;;;;14.93;12.15;;;;;;;10.84;69.12;100875.87;1704188;83;21131;-69
2021/01/06 09:27:44;;;;;;;14.65;11.65;;;;;;;10.84;69.19;100871.92;1765719;81;21614;-69
2021/01/06 09:30:26;;;;;;;12.47;10.93;;;;;;;10.82;68.93;100880.27;1733526;79;21119;-69
2021/01/06 09:32:55;;;;;;;13.80;11.95;;;;;;;10.81;69.15;100874.14;1713511;83;21138;-71
2021/01/06 09:35:30;;;;;;;16.75;13.03;;;;;;;10.84;69.45;100875.87;1703128;82;21202;-69
2021/01/06 09:38:26;;;;;;;15.18;11.93;;;;;;;10.91;69.17;100867.05;1670301;85;21143;-69
2021/01/06 09:40:57;;;;;;;11.38;9.23;;;;;;;10.97;68.98;100865.70;1686610;83;21316;-71
2021/01/06 09:43:42;;;;;;;11.75;9.25;;;;;;;11.03;67.84;100871.83;1658982;85;21151;-71
2021/01/06 09:46:28;;;;;;;11.15;9.13;;;;;;;11.13;67.33;100872.20;1677853;84;21177;-68
2021/01/06 09:48:59;;;;;;;11.53;9.58;;;;;;;11.21;67.49;100870.39;1676786;85;21195;-73
2021/01/06 09:51:27;;;;;;;13.13;10.10;;;;;;;11.30;67.43;100876.03;1695164;84;21514;-72
2021/01/06 09:53:58;;;;;;;12.60;10.53;;;;;;;11.37;67.31;100875.53;1694282;84;21161;-73
2021/01/06 09:56:26;;;;;;;12.47;10.53;;;;;;;11.41;67.11;100874.20;1678210;84;21158;-73
2021/01/06 09:58:54;;;;;;;11.83;10.18;;;;;;;11.51;67.20;100874.99;1693956;83;21708;-69
2021/01/06 10:01:52;;;;;;;11.68;9.63;;;;;;;11.62;67.19;100868.30;1698650;83;21623;-69
2021/01/06 10:04:24;;;;;;;12.13;9.90;;;;;;;11.70;66.62;100859.88;1696623;84;21171;-68
2021/01/06 10:07:09;;;;;;;10.50;8.63;;;;;;;11.81;65.64;100858.45;1667353;86;21166;-72
2021/01/06 10:09:42;;;;;;;10.28;8.80;;;;;;;11.82;64.96;100854.92;1696405;84;21605;-69
2021/01/06 10:12:44;;;;;;;10.05;8.40;;;;;;;11.80;64.97;100855.84;1667090;85;21159;-69
2021/01/06 10:15:51;;;;;;;11.15;8.55;;;;;;;11.85;65.20;100860.64;1696575;83;21662;-68
2021/01/06 10:18:42;;;;;;;9.38;7.75;;;;;;;11.99;64.65;100853.89;1693708;83;21649;-69
2021/01/06 10:21:24;;;;;;;11.20;8.95;;;;;;;12.09;63.62;100852.95;1697061;83;21215;-69
2021/01/06 10:24:22;;;;;;;9.05;7.75;;;;;;;12.31;63.63;100857.53;1677766;84;21151;-68
2021/01/06 10:27:20;;;;;;;10.78;8.28;;;;;;;12.18;63.50;100854.14;1614847;86;21689;-69
2021/01/06 10:29:52;;;;;;;10.63;8.38;;;;;;;12.19;63.71;100860.30;1673743;84;21163;-72
2021/01/06 10:32:44;;;;;;;11.50;9.35;;;;;;;12.24;63.32;100858.92;1637739;87;21175;-71
2021/01/06 10:35:40;;;;;;;8.40;6.92;;;;;;;12.32;63.96;100853.11;1649860;85;21213;-72
2021/01/06 10:38:29;;;;;;;7.83;6.58;;;;;;;12.38;62.55;100851.72;1651106;85;21166;-68
2021/01/06 10:41:31;;;;;;;8.98;7.35;;;;;;;12.46;62.55;100846.34;1649984;85;21186;-68
2021/01/06 10:44:02;;;;;;;7.20;6.25;;;;;;;12.49;62.10;100839.27;1644815;87;21194;-71
2021/01/06 10:46:47;;;;;;;7.28;6.10;;;;;;;12.60;61.80;100835.59;1616378;86;21209;-69
2021/01/06 10:49:26;;;;;;;8.00;6.72;;;;;;;12.60;60.78;100836.48;1642782;87;21581;-68
2021/01/06 10:52:00;;;;;;;8.88;7.10;;;;;;;12.60;60.97;100834.27;1618676;89;21200;-68
2021/01/06 10:54:52;;;;;;;8.43;7.15;;;;;;;12.60;60.53;100843.08;1618557;87;21170;-73
2021/01/06 10:57:41;;;;;;;9.63;8.13;;;;;;;12.59;61.01;100844.41;1641176;85;21186;-73
2021/01/06 11:00:17;;;;;;;8.73;7.15;;;;;;;12.57;61.31;100847.08;1616367;84;21692;-71
2021/01/06 11:03:33;;;;;;;8.90;7.42;;;;;;;12.58;61.06;100853.25;1644706;87;21127;-73
2021/01/06 11:06:46;;;;;;;8.65;7.00;;;;;;;12.60;60.67;100855.39;1646304;86;21178;-71
2021/01/06 11:09:45;;;;;;;9.10;7.12;;;;;;;12.62;61.18;100858.45;1657527;86;21176;-71
2021/01/06 11:12:25;;;;;;;8.78;7.28;;;;;;;12.73;60.75;100859.63;1640468;86;21315;-70
2021/01/06 11:15:19;;;;;;;8.48;6.67;;;;;;;12.81;61.08;100859.52;1616006;86;21763;-72
2021/01/06 11:18:10;;;;;;;8.15;6.85;;;;;;;12.89;60.88;100852.36;1640832;86;21187;-70
2021/01/06 11:20:39;;;;;;;8.85;7.28;;;;;;;12.91;60.23;100847.07;1650258;85;21207;-73
2021/01/06 11:23:33;;;;;;;10.08;7.75;;;;;;;12.93;59.92;100843.49;1649215;85;21591;-73
2021/01/06 11:26:30;;;;;;;8.50;6.95;;;;;;;12.95;60.11;100843.48;1611216;88;21361;-72
2021/01/06 11:29:17;;;;;;;8.40;6.42;;;;;;;13.01;60.07;100843.41;1610739;89;21613;-71
2021/01/06 11:32:19;;;;;;;8.15;6.53;;;;;;;13.03;59.42;100844.22;1617425;87;21203;-73
2021/01/06 11:34:48;;;;;;;;;;;;;;;13.07;59.04;100849.89;1661179;86;21310;-70
2021/01/06 11:37:34;;;;;;;8.30;6.00;;;;;;;13.12;59.33;100839.70;1656827;86;20149;-70
2021/01/06 11:40:03;;;;;;;8.55;6.47;;;;;;;13.15;59.15;100845.83;1662302;85;21135;-73
2021/01/06 11:43:03;;;;;;;9.75;7.78;;;;;;;13.13;58.64;100843.66;1662264;86;21617;-70
2021/01/06 11:45:47;;;;;;;10.88;7.92;;;;;;;13.11;58.77;100836.63;1662259;86;21205;-74
2021/01/06 11:48:34;;;;;;;9.73;7.80;;;;;;;13.14;58.39;100839.23;1662557;86;21602;-70
2021/01/06 11:51:22;;;;;;;10.93;9.23;;;;;;;13.13;58.54;100838.38;1662147;86;21163;-73
2021/01/06 11:54:24;;;;;;;12.73;10.32;;;;;;;13.10;58.87;100845.02;1646488;86;21186;-73
2021/01/06 11:56:56;;;;;;;13.15;9.93;;;;;;;13.07;58.97;100835.36;1654275;87;21317;-74
2021/01/06 11:59:32;;;;;;;13.03;9.53;;;;;;;13.04;59.02;100838.05;1672102;85;21159;-74
2021/01/06 12:02:17;;;;;;;12.23;10.03;;;;;;;13.10;59.25;100842.38;1660452;85;21174;-74
2021/01/06 12:05:20;;;;;;;12.23;10.10;;;;;;;13.13;59.47;100842.77;1652135;87;21673;-70
2021/01/06 12:08:09;;;;;;;12.95;9.53;;;;;;;13.12;59.24;100841.02;1629560;87;21150;-75
2021/01/06 12:11:04;;;;;;;12.00;9.68;;;;;;;13.21;59.04;100847.48;1625163;85;21191;-74
2021/01/06 12:13:44;;;;;;;12.13;8.43;;;;;;;13.24;58.23;100842.16;1662207;86;21292;-70
2021/01/06 12:16:17;;;;;;;10.20;8.08;;;;;;;13.15;57.86;100851.11;1662494;85;21729;-69
2021/01/06 12:19:11;;;;;;;9.10;7.50;;;;;;;13.17;57.85;100849.33;1661979;86;21289;-74
2021/01/06 12:21:48;;;;;;;7.97;6.58;;;;;;;13.14;56.24;100846.72;1654085;85;21162;-69